This is the latest recevied weather packets stored in our database for station/object KD4WLE. If no packets are shown the sender has not sent any weather packets the latest 10 day(s).
| Time | Temp. | Humidity | Pressure | Rain* | Wind** | Luminosity | Snow |
|---|---|---|---|---|---|---|---|
| 1777913840 | 25° C | 65% | 1018.1 hPa | 0 mm | - | 444 W/m² | - |
| 1777913536 | 26.11° C | 61% | 1018.5 hPa | 0 mm | - | 349 W/m² | - |
| 1777913233 | 24.44° C | 66% | 1018.3 hPa | 0 mm | - | 944 W/m² | - |
| 1777912930 | 24.44° C | 66% | 1018.4 hPa | 0 mm | - | 251 W/m² | - |
| 1777912625 | 24.44° C | 64% | 1018.3 hPa | 0 mm | - | 428 W/m² | - |
| 1777912321 | 25° C | 64% | 1018.3 hPa | 0 mm | - | 381 W/m² | - |
| 1777912017 | 24.44° C | 66% | 1018.5 hPa | 0 mm | - | 576 W/m² | - |
| 1777911713 | 24.44° C | 67% | 1018.2 hPa | 0 mm | - | 252 W/m² | - |
| 1777911410 | 25° C | 64% | 1018.1 hPa | 0 mm | - | 507 W/m² | - |
| 1777911108 | 25° C | 67% | 1018.5 hPa | 0 mm | - | 263 W/m² | - |
| 1777910805 | 26.67° C | 58% | 1018.6 hPa | 0 mm | - | 292 W/m² | - |
| 1777910502 | 25.56° C | 62% | 1018.5 hPa | 0 mm | - | 446 W/m² | - |
| 1777910198 | 25.56° C | 61% | 1018.5 hPa | 0 mm | - | 890 W/m² | - |
| 1777909896 | 24.44° C | 67% | 1018.5 hPa | 0 mm | - | 875 W/m² | - |
| 1777909592 | 24.44° C | 66% | 1018.5 hPa | 0 mm | - | 846 W/m² | - |
| 1777909290 | 23.89° C | 67% | 1018.6 hPa | 0 mm | - | 198 W/m² | - |
| 1777908988 | 24.44° C | 65% | 1018.5 hPa | 0 mm | - | 189 W/m² | - |
| 1777908685 | 24.44° C | 64% | 1018.5 hPa | 0 mm | - | 283 W/m² | - |
| 1777908382 | 23.89° C | 65% | 1018.7 hPa | 0 mm | - | 248 W/m² | - |
| 1777908079 | 25.56° C | 63% | 1018.7 hPa | 0 mm | - | 182 W/m² | - |
| 1777907775 | 23.89° C | 66% | 1018.6 hPa | 0 mm | - | 824 W/m² | - |
| 1777907469 | 23.89° C | 70% | 1018.9 hPa | 0 mm | - | 152 W/m² | - |
| 1777907167 | 23.89° C | 67% | 1018.5 hPa | 0 mm | - | 148 W/m² | - |
| 1777906864 | 23.33° C | 68% | 1018.8 hPa | 0 mm | - | 222 W/m² | - |
| 1777906561 | 23.89° C | 67% | 1018.7 hPa | 0 mm | - | 150 W/m² | - |
* Rain latest hour (hover to see other rain measurements)
** Current wind speed in m/s (hover to see current wind gust speed)